sensor_id;sensor_type;location;lat;lon;timestamp;temperature;humidity
31391;DHT22;18022;45.492;11.548;2024-03-29T00:00:40;9.10;99.90
31391;DHT22;18022;45.492;11.548;2024-03-29T00:03:07;9.00;99.90
31391;DHT22;18022;45.492;11.548;2024-03-29T00:05:36;8.90;99.90
31391;DHT22;18022;45.492;11.548;2024-03-29T00:08:02;8.70;99.90
31391;DHT22;18022;45.492;11.548;2024-03-29T00:10:28;8.60;99.90
31391;DHT22;18022;45.492;11.548;2024-03-29T00:12:54;8.60;99.90
31391;DHT22;18022;45.492;11.548;2024-03-29T00:15:20;8.50;99.90
31391;DHT22;18022;45.492;11.548;2024-03-29T00:17:45;8.50;99.90
31391;DHT22;18022;45.492;11.548;2024-03-29T00:20:11;8.50;99.90
31391;DHT22;18022;45.492;11.548;2024-03-29T00:22:37;8.60;99.90
31391;DHT22;18022;45.492;11.548;2024-03-29T00:25:03;8.70;99.90
31391;DHT22;18022;45.492;11.548;2024-03-29T00:27:29;8.70;99.90
31391;DHT22;18022;45.492;11.548;2024-03-29T00:29:56;8.70;99.90
31391;DHT22;18022;45.492;11.548;2024-03-29T00:32:22;8.80;99.90
31391;DHT22;18022;45.492;11.548;2024-03-29T00:34:52;8.80;99.90
31391;DHT22;18022;45.492;11.548;2024-03-29T00:37:18;8.80;99.90
31391;DHT22;18022;45.492;11.548;2024-03-29T00:39:44;8.80;99.90
31391;DHT22;18022;45.492;11.548;2024-03-29T00:42:10;8.90;99.90
31391;DHT22;18022;45.492;11.548;2024-03-29T00:44:41;8.90;99.90
31391;DHT22;18022;45.492;11.548;2024-03-29T00:47:07;8.80;99.90
31391;DHT22;18022;45.492;11.548;2024-03-29T00:49:33;8.90;99.90
31391;DHT22;18022;45.492;11.548;2024-03-29T00:52:00;8.90;99.90
31391;DHT22;18022;45.492;11.548;2024-03-29T00:54:25;8.90;99.90
31391;DHT22;18022;45.492;11.548;2024-03-29T00:56:51;8.90;99.90
31391;DHT22;18022;45.492;11.548;2024-03-29T00:59:18;8.90;99.90
31391;DHT22;18022;45.492;11.548;2024-03-29T01:01:44;8.80;99.90
31391;DHT22;18022;45.492;11.548;2024-03-29T01:04:10;8.90;99.90
31391;DHT22;18022;45.492;11.548;2024-03-29T01:06:36;8.90;99.90
31391;DHT22;18022;45.492;11.548;2024-03-29T01:09:02;9.00;99.90
31391;DHT22;18022;45.492;11.548;2024-03-29T01:11:29;9.00;99.90
31391;DHT22;18022;45.492;11.548;2024-03-29T01:13:55;9.00;99.90
31391;DHT22;18022;45.492;11.548;2024-03-29T01:16:21;9.10;99.90
31391;DHT22;18022;45.492;11.548;2024-03-29T01:18:47;9.10;99.90
31391;DHT22;18022;45.492;11.548;2024-03-29T01:21:13;9.10;99.90
31391;DHT22;18022;45.492;11.548;2024-03-29T01:23:39;9.10;99.90
31391;DHT22;18022;45.492;11.548;2024-03-29T01:26:06;9.10;99.90
31391;DHT22;18022;45.492;11.548;2024-03-29T01:28:32;9.10;99.90
31391;DHT22;18022;45.492;11.548;2024-03-29T01:30:57;9.10;99.90
31391;DHT22;18022;45.492;11.548;2024-03-29T01:33:26;9.10;99.90
31391;DHT22;18022;45.492;11.548;2024-03-29T01:35:52;9.10;99.90
31391;DHT22;18022;45.492;11.548;2024-03-29T01:38:18;9.20;99.90
31391;DHT22;18022;45.492;11.548;2024-03-29T01:40:43;9.20;99.90
31391;DHT22;18022;45.492;11.548;2024-03-29T01:43:09;9.20;99.90
31391;DHT22;18022;45.492;11.548;2024-03-29T01:45:38;9.30;99.90
31391;DHT22;18022;45.492;11.548;2024-03-29T01:48:05;9.30;99.90
31391;DHT22;18022;45.492;11.548;2024-03-29T01:50:31;9.30;99.90
31391;DHT22;18022;45.492;11.548;2024-03-29T01:52:57;9.20;99.90
31391;DHT22;18022;45.492;11.548;2024-03-29T01:55:23;9.20;99.90
31391;DHT22;18022;45.492;11.548;2024-03-29T01:57:50;9.30;99.90
31391;DHT22;18022;45.492;11.548;2024-03-29T02:00:17;9.30;99.90
31391;DHT22;18022;45.492;11.548;2024-03-29T02:02:43;9.30;99.90
31391;DHT22;18022;45.492;11.548;2024-03-29T02:05:09;9.30;99.90
31391;DHT22;18022;45.492;11.548;2024-03-29T02:07:35;9.30;99.90
31391;DHT22;18022;45.492;11.548;2024-03-29T02:10:02;9.30;99.90
31391;DHT22;18022;45.492;11.548;2024-03-29T02:12:29;9.30;99.90
31391;DHT22;18022;45.492;11.548;2024-03-29T02:14:54;9.40;99.90
31391;DHT22;18022;45.492;11.548;2024-03-29T02:17:21;9.30;99.90
31391;DHT22;18022;45.492;11.548;2024-03-29T02:19:46;9.30;99.90
31391;DHT22;18022;45.492;11.548;2024-03-29T02:22:15;9.30;99.90
31391;DHT22;18022;45.492;11.548;2024-03-29T02:24:41;9.30;99.90
31391;DHT22;18022;45.492;11.548;2024-03-29T02:27:07;9.30;99.90
31391;DHT22;18022;45.492;11.548;2024-03-29T02:29:35;9.30;99.90
31391;DHT22;18022;45.492;11.548;2024-03-29T02:32:03;9.30;99.90
31391;DHT22;18022;45.492;11.548;2024-03-29T02:34:29;9.30;99.90
31391;DHT22;18022;45.492;11.548;2024-03-29T02:36:54;9.30;99.90
31391;DHT22;18022;45.492;11.548;2024-03-29T02:39:21;9.30;99.90
31391;DHT22;18022;45.492;11.548;2024-03-29T02:41:47;9.40;99.90
31391;DHT22;18022;45.492;11.548;2024-03-29T02:44:13;9.40;99.90
31391;DHT22;18022;45.492;11.548;2024-03-29T02:46:41;9.40;99.90
31391;DHT22;18022;45.492;11.548;2024-03-29T02:49:07;9.40;99.90
31391;DHT22;18022;45.492;11.548;2024-03-29T02:51:33;9.30;99.90
31391;DHT22;18022;45.492;11.548;2024-03-29T02:53:59;9.30;99.90
31391;DHT22;18022;45.492;11.548;2024-03-29T02:56:26;9.30;99.90
31391;DHT22;18022;45.492;11.548;2024-03-29T02:58:52;9.30;99.90
31391;DHT22;18022;45.492;11.548;2024-03-29T03:01:18;9.20;99.90
31391;DHT22;18022;45.492;11.548;2024-03-29T03:03:44;9.30;99.90
31391;DHT22;18022;45.492;11.548;2024-03-29T03:06:10;9.40;99.90
31391;DHT22;18022;45.492;11.548;2024-03-29T03:08:36;9.30;99.90
31391;DHT22;18022;45.492;11.548;2024-03-29T03:11:20;9.40;99.90
31391;DHT22;18022;45.492;11.548;2024-03-29T03:13:45;9.30;99.90
31391;DHT22;18022;45.492;11.548;2024-03-29T03:16:11;9.40;99.90
31391;DHT22;18022;45.492;11.548;2024-03-29T03:18:37;9.40;99.90
31391;DHT22;18022;45.492;11.548;2024-03-29T03:21:03;9.40;99.90
31391;DHT22;18022;45.492;11.548;2024-03-29T03:23:28;9.40;99.90
31391;DHT22;18022;45.492;11.548;2024-03-29T03:25:58;9.40;99.90
31391;DHT22;18022;45.492;11.548;2024-03-29T03:28:24;9.50;99.90
31391;DHT22;18022;45.492;11.548;2024-03-29T03:30:51;9.40;99.90
31391;DHT22;18022;45.492;11.548;2024-03-29T03:33:18;9.40;99.90
31391;DHT22;18022;45.492;11.548;2024-03-29T03:35:43;9.40;99.90
31391;DHT22;18022;45.492;11.548;2024-03-29T03:38:10;9.50;99.90
31391;DHT22;18022;45.492;11.548;2024-03-29T03:40:36;9.40;99.90
31391;DHT22;18022;45.492;11.548;2024-03-29T03:43:02;9.30;99.90
31391;DHT22;18022;45.492;11.548;2024-03-29T03:45:33;9.30;99.90
31391;DHT22;18022;45.492;11.548;2024-03-29T03:47:59;9.30;99.90
31391;DHT22;18022;45.492;11.548;2024-03-29T03:50:24;9.30;99.90
31391;DHT22;18022;45.492;11.548;2024-03-29T03:52:50;9.30;99.90
31391;DHT22;18022;45.492;11.548;2024-03-29T03:55:16;9.40;99.90
31391;DHT22;18022;45.492;11.548;2024-03-29T03:57:41;9.40;99.90
31391;DHT22;18022;45.492;11.548;2024-03-29T04:00:07;9.30;99.90
31391;DHT22;18022;45.492;11.548;2024-03-29T04:02:34;9.40;99.90
31391;DHT22;18022;45.492;11.548;2024-03-29T04:05:00;9.40;99.90
31391;DHT22;18022;45.492;11.548;2024-03-29T04:07:25;9.40;99.90
31391;DHT22;18022;45.492;11.548;2024-03-29T04:09:51;9.40;99.90
31391;DHT22;18022;45.492;11.548;2024-03-29T04:12:17;9.40;99.90
31391;DHT22;18022;45.492;11.548;2024-03-29T04:14:43;9.40;99.90
31391;DHT22;18022;45.492;11.548;2024-03-29T04:17:09;9.40;99.90
31391;DHT22;18022;45.492;11.548;2024-03-29T04:19:35;9.40;99.90
31391;DHT22;18022;45.492;11.548;2024-03-29T04:22:00;9.40;99.90
31391;DHT22;18022;45.492;11.548;2024-03-29T04:24:28;9.40;99.90
31391;DHT22;18022;45.492;11.548;2024-03-29T04:26:54;9.40;99.90
31391;DHT22;18022;45.492;11.548;2024-03-29T04:29:19;9.40;99.90
31391;DHT22;18022;45.492;11.548;2024-03-29T04:31:45;9.50;99.90
31391;DHT22;18022;45.492;11.548;2024-03-29T04:34:11;9.40;99.90
31391;DHT22;18022;45.492;11.548;2024-03-29T04:36:37;9.40;99.90
31391;DHT22;18022;45.492;11.548;2024-03-29T04:39:04;9.50;99.90
31391;DHT22;18022;45.492;11.548;2024-03-29T04:41:30;9.50;99.90
31391;DHT22;18022;45.492;11.548;2024-03-29T04:44:00;9.50;99.90
31391;DHT22;18022;45.492;11.548;2024-03-29T04:46:26;9.60;99.90
31391;DHT22;18022;45.492;11.548;2024-03-29T04:48:52;9.50;99.90
31391;DHT22;18022;45.492;11.548;2024-03-29T04:51:18;9.40;99.90
31391;DHT22;18022;45.492;11.548;2024-03-29T04:53:43;9.40;99.90
31391;DHT22;18022;45.492;11.548;2024-03-29T04:56:09;9.40;99.90
31391;DHT22;18022;45.492;11.548;2024-03-29T04:58:35;9.50;99.90
31391;DHT22;18022;45.492;11.548;2024-03-29T05:01:01;9.40;99.90
31391;DHT22;18022;45.492;11.548;2024-03-29T05:03:26;9.50;99.90
31391;DHT22;18022;45.492;11.548;2024-03-29T05:05:53;9.50;99.90
31391;DHT22;18022;45.492;11.548;2024-03-29T05:08:19;9.50;99.90
31391;DHT22;18022;45.492;11.548;2024-03-29T05:10:46;9.40;99.90
31391;DHT22;18022;45.492;11.548;2024-03-29T05:13:12;9.40;99.90
31391;DHT22;18022;45.492;11.548;2024-03-29T05:15:37;9.40;99.90
31391;DHT22;18022;45.492;11.548;2024-03-29T05:18:03;9.40;99.90
31391;DHT22;18022;45.492;11.548;2024-03-29T05:20:30;9.40;99.90
31391;DHT22;18022;45.492;11.548;2024-03-29T05:22:57;9.40;99.90
31391;DHT22;18022;45.492;11.548;2024-03-29T05:25:23;9.50;99.90
31391;DHT22;18022;45.492;11.548;2024-03-29T05:27:49;9.50;99.90
31391;DHT22;18022;45.492;11.548;2024-03-29T05:30:15;9.50;99.90
31391;DHT22;18022;45.492;11.548;2024-03-29T05:32:40;9.50;99.90
31391;DHT22;18022;45.492;11.548;2024-03-29T05:35:06;9.60;99.90
31391;DHT22;18022;45.492;11.548;2024-03-29T05:37:35;9.60;99.90
31391;DHT22;18022;45.492;11.548;2024-03-29T05:40:00;9.60;99.90
31391;DHT22;18022;45.492;11.548;2024-03-29T05:42:30;9.60;99.90
31391;DHT22;18022;45.492;11.548;2024-03-29T05:44:56;9.60;99.90
31391;DHT22;18022;45.492;11.548;2024-03-29T05:47:22;9.60;99.90
31391;DHT22;18022;45.492;11.548;2024-03-29T05:49:48;9.60;99.90
31391;DHT22;18022;45.492;11.548;2024-03-29T05:52:14;9.50;99.90
31391;DHT22;18022;45.492;11.548;2024-03-29T05:54:44;9.50;99.90
31391;DHT22;18022;45.492;11.548;2024-03-29T05:57:10;9.60;99.90
31391;DHT22;18022;45.492;11.548;2024-03-29T05:59:36;9.70;99.90
31391;DHT22;18022;45.492;11.548;2024-03-29T06:02:02;9.70;99.90
31391;DHT22;18022;45.492;11.548;2024-03-29T06:04:28;9.70;99.90
31391;DHT22;18022;45.492;11.548;2024-03-29T06:07:05;9.60;99.90
31391;DHT22;18022;45.492;11.548;2024-03-29T06:09:31;9.70;99.90
31391;DHT22;18022;45.492;11.548;2024-03-29T06:11:59;9.70;99.90
31391;DHT22;18022;45.492;11.548;2024-03-29T06:14:24;9.70;99.90
31391;DHT22;18022;45.492;11.548;2024-03-29T06:17:28;9.70;99.90
31391;DHT22;18022;45.492;11.548;2024-03-29T06:19:55;9.80;99.90
31391;DHT22;18022;45.492;11.548;2024-03-29T06:22:25;9.80;99.90
31391;DHT22;18022;45.492;11.548;2024-03-29T06:24:51;9.70;99.90
31391;DHT22;18022;45.492;11.548;2024-03-29T06:27:17;9.70;99.90
31391;DHT22;18022;45.492;11.548;2024-03-29T06:29:44;9.80;99.90
31391;DHT22;18022;45.492;11.548;2024-03-29T06:32:10;9.80;99.90
31391;DHT22;18022;45.492;11.548;2024-03-29T06:34:36;9.90;99.90
31391;DHT22;18022;45.492;11.548;2024-03-29T06:37:02;9.90;99.90
31391;DHT22;18022;45.492;11.548;2024-03-29T06:39:28;9.90;99.90
31391;DHT22;18022;45.492;11.548;2024-03-29T06:41:54;9.90;99.90
31391;DHT22;18022;45.492;11.548;2024-03-29T06:44:19;9.90;99.90
31391;DHT22;18022;45.492;11.548;2024-03-29T06:46:48;10.00;99.90
31391;DHT22;18022;45.492;11.548;2024-03-29T06:49:14;10.00;99.90
31391;DHT22;18022;45.492;11.548;2024-03-29T06:51:40;10.00;99.90
31391;DHT22;18022;45.492;11.548;2024-03-29T06:54:06;10.00;99.90
31391;DHT22;18022;45.492;11.548;2024-03-29T06:56:32;10.00;99.90
31391;DHT22;18022;45.492;11.548;2024-03-29T06:58:58;9.90;99.90
31391;DHT22;18022;45.492;11.548;2024-03-29T07:01:24;10.00;99.90
31391;DHT22;18022;45.492;11.548;2024-03-29T07:03:50;10.10;99.90
31391;DHT22;18022;45.492;11.548;2024-03-29T07:06:15;10.10;99.90
31391;DHT22;18022;45.492;11.548;2024-03-29T07:08:41;10.20;99.90
31391;DHT22;18022;45.492;11.548;2024-03-29T07:11:08;10.10;99.90
31391;DHT22;18022;45.492;11.548;2024-03-29T07:13:33;10.20;99.90
31391;DHT22;18022;45.492;11.548;2024-03-29T07:16:02;10.20;99.90
31391;DHT22;18022;45.492;11.548;2024-03-29T07:18:28;10.40;99.90
31391;DHT22;18022;45.492;11.548;2024-03-29T07:20:54;10.40;99.90
31391;DHT22;18022;45.492;11.548;2024-03-29T07:23:20;10.40;99.90
31391;DHT22;18022;45.492;11.548;2024-03-29T07:25:56;10.30;99.90
31391;DHT22;18022;45.492;11.548;2024-03-29T07:28:22;10.40;99.90
31391;DHT22;18022;45.492;11.548;2024-03-29T07:30:48;10.50;99.90
31391;DHT22;18022;45.492;11.548;2024-03-29T07:33:15;10.40;99.90
31391;DHT22;18022;45.492;11.548;2024-03-29T07:35:42;10.40;99.90
31391;DHT22;18022;45.492;11.548;2024-03-29T07:38:08;10.50;99.90
31391;DHT22;18022;45.492;11.548;2024-03-29T07:40:34;10.50;99.90
31391;DHT22;18022;45.492;11.548;2024-03-29T07:43:00;10.50;99.90
31391;DHT22;18022;45.492;11.548;2024-03-29T07:45:26;10.60;99.90
31391;DHT22;18022;45.492;11.548;2024-03-29T07:47:52;10.60;99.90
31391;DHT22;18022;45.492;11.548;2024-03-29T07:50:21;10.70;99.90
31391;DHT22;18022;45.492;11.548;2024-03-29T07:52:47;10.70;99.90
31391;DHT22;18022;45.492;11.548;2024-03-29T07:55:13;10.70;99.90
31391;DHT22;18022;45.492;11.548;2024-03-29T07:57:39;10.70;99.90
31391;DHT22;18022;45.492;11.548;2024-03-29T08:00:05;10.80;99.90
31391;DHT22;18022;45.492;11.548;2024-03-29T08:02:32;10.80;99.90
31391;DHT22;18022;45.492;11.548;2024-03-29T08:04:57;10.80;99.90
31391;DHT22;18022;45.492;11.548;2024-03-29T08:07:24;10.70;99.90
31391;DHT22;18022;45.492;11.548;2024-03-29T08:09:50;10.70;99.90
31391;DHT22;18022;45.492;11.548;2024-03-29T08:12:18;10.80;99.90
31391;DHT22;18022;45.492;11.548;2024-03-29T08:14:44;10.70;99.90
31391;DHT22;18022;45.492;11.548;2024-03-29T08:17:09;10.60;99.90
31391;DHT22;18022;45.492;11.548;2024-03-29T08:19:36;10.70;99.90
31391;DHT22;18022;45.492;11.548;2024-03-29T08:22:02;10.80;99.90
31391;DHT22;18022;45.492;11.548;2024-03-29T08:24:28;10.80;99.90
31391;DHT22;18022;45.492;11.548;2024-03-29T08:26:53;10.80;99.90
31391;DHT22;18022;45.492;11.548;2024-03-29T08:29:19;10.80;99.90
31391;DHT22;18022;45.492;11.548;2024-03-29T08:31:45;10.80;99.90
31391;DHT22;18022;45.492;11.548;2024-03-29T08:34:10;10.90;99.90
31391;DHT22;18022;45.492;11.548;2024-03-29T08:36:39;10.80;99.90
31391;DHT22;18022;45.492;11.548;2024-03-29T08:39:05;11.00;99.90
31391;DHT22;18022;45.492;11.548;2024-03-29T08:41:31;11.10;99.90
31391;DHT22;18022;45.492;11.548;2024-03-29T08:43:56;11.00;99.90
31391;DHT22;18022;45.492;11.548;2024-03-29T08:46:22;11.00;99.90
31391;DHT22;18022;45.492;11.548;2024-03-29T08:48:48;11.00;99.90
31391;DHT22;18022;45.492;11.548;2024-03-29T08:51:14;11.00;99.90
31391;DHT22;18022;45.492;11.548;2024-03-29T08:53:40;11.00;99.90
31391;DHT22;18022;45.492;11.548;2024-03-29T08:56:06;11.00;99.90
31391;DHT22;18022;45.492;11.548;2024-03-29T08:58:32;11.10;99.90
31391;DHT22;18022;45.492;11.548;2024-03-29T09:00:58;11.20;99.90
31391;DHT22;18022;45.492;11.548;2024-03-29T09:03:24;11.20;99.90
31391;DHT22;18022;45.492;11.548;2024-03-29T09:05:51;11.30;99.90
31391;DHT22;18022;45.492;11.548;2024-03-29T09:08:17;11.30;99.90
31391;DHT22;18022;45.492;11.548;2024-03-29T09:10:43;11.40;99.90
31391;DHT22;18022;45.492;11.548;2024-03-29T09:13:09;11.40;99.90
31391;DHT22;18022;45.492;11.548;2024-03-29T09:15:36;11.50;99.90
31391;DHT22;18022;45.492;11.548;2024-03-29T09:18:02;11.60;99.90
31391;DHT22;18022;45.492;11.548;2024-03-29T09:20:36;11.60;99.90
31391;DHT22;18022;45.492;11.548;2024-03-29T09:23:01;11.60;99.90
31391;DHT22;18022;45.492;11.548;2024-03-29T09:25:27;11.70;99.90
31391;DHT22;18022;45.492;11.548;2024-03-29T09:27:53;11.80;99.90
31391;DHT22;18022;45.492;11.548;2024-03-29T09:30:18;11.90;99.90
31391;DHT22;18022;45.492;11.548;2024-03-29T09:32:45;11.90;99.90
31391;DHT22;18022;45.492;11.548;2024-03-29T09:35:11;12.00;99.90
31391;DHT22;18022;45.492;11.548;2024-03-29T09:37:37;12.10;99.90
31391;DHT22;18022;45.492;11.548;2024-03-29T09:40:04;12.20;99.90
31391;DHT22;18022;45.492;11.548;2024-03-29T09:42:32;12.40;99.90
31391;DHT22;18022;45.492;11.548;2024-03-29T09:44:59;12.40;99.90
31391;DHT22;18022;45.492;11.548;2024-03-29T09:47:27;12.50;99.90
31391;DHT22;18022;45.492;11.548;2024-03-29T09:49:54;12.70;99.90
31391;DHT22;18022;45.492;11.548;2024-03-29T09:52:21;12.70;99.90
31391;DHT22;18022;45.492;11.548;2024-03-29T09:54:47;12.60;99.90
31391;DHT22;18022;45.492;11.548;2024-03-29T09:57:13;13.00;99.90
31391;DHT22;18022;45.492;11.548;2024-03-29T09:59:39;12.90;99.90
31391;DHT22;18022;45.492;11.548;2024-03-29T10:02:14;12.70;99.90
31391;DHT22;18022;45.492;11.548;2024-03-29T10:04:40;12.80;99.90
31391;DHT22;18022;45.492;11.548;2024-03-29T10:07:07;12.80;99.90
31391;DHT22;18022;45.492;11.548;2024-03-29T10:09:36;12.80;99.90
31391;DHT22;18022;45.492;11.548;2024-03-29T10:12:01;12.90;99.90
31391;DHT22;18022;45.492;11.548;2024-03-29T10:14:30;12.90;99.90
31391;DHT22;18022;45.492;11.548;2024-03-29T10:16:58;12.90;99.90
31391;DHT22;18022;45.492;11.548;2024-03-29T10:19:23;12.90;99.90
31391;DHT22;18022;45.492;11.548;2024-03-29T10:21:49;12.80;99.90
31391;DHT22;18022;45.492;11.548;2024-03-29T10:24:16;13.00;99.90
31391;DHT22;18022;45.492;11.548;2024-03-29T10:26:46;13.20;99.90
31391;DHT22;18022;45.492;11.548;2024-03-29T10:29:13;13.40;99.90
31391;DHT22;18022;45.492;11.548;2024-03-29T10:31:39;13.50;99.90
31391;DHT22;18022;45.492;11.548;2024-03-29T10:34:05;13.60;99.90
31391;DHT22;18022;45.492;11.548;2024-03-29T10:36:32;13.40;99.90
31391;DHT22;18022;45.492;11.548;2024-03-29T10:39:09;13.50;99.90
31391;DHT22;18022;45.492;11.548;2024-03-29T10:41:42;13.50;99.90
31391;DHT22;18022;45.492;11.548;2024-03-29T10:44:12;13.50;99.90
31391;DHT22;18022;45.492;11.548;2024-03-29T10:46:38;13.70;99.90
31391;DHT22;18022;45.492;11.548;2024-03-29T10:49:09;13.90;99.90
31391;DHT22;18022;45.492;11.548;2024-03-29T10:51:38;14.00;99.90
31391;DHT22;18022;45.492;11.548;2024-03-29T10:54:06;14.00;99.90
31391;DHT22;18022;45.492;11.548;2024-03-29T10:56:34;13.70;99.90
31391;DHT22;18022;45.492;11.548;2024-03-29T10:59:21;13.70;99.90
31391;DHT22;18022;45.492;11.548;2024-03-29T11:01:54;13.80;99.90
31391;DHT22;18022;45.492;11.548;2024-03-29T11:04:29;14.10;99.90
31391;DHT22;18022;45.492;11.548;2024-03-29T11:06:58;14.30;99.90
31391;DHT22;18022;45.492;11.548;2024-03-29T11:09:28;14.40;99.90
31391;DHT22;18022;45.492;11.548;2024-03-29T11:11:56;14.60;99.90
31391;DHT22;18022;45.492;11.548;2024-03-29T11:14:29;14.60;99.90
31391;DHT22;18022;45.492;11.548;2024-03-29T11:16:56;14.70;99.90
31391;DHT22;18022;45.492;11.548;2024-03-29T11:19:24;15.00;99.90
31391;DHT22;18022;45.492;11.548;2024-03-29T11:21:51;15.30;99.90
31391;DHT22;18022;45.492;11.548;2024-03-29T11:24:17;15.70;99.90
31391;DHT22;18022;45.492;11.548;2024-03-29T11:26:45;15.70;99.90
31391;DHT22;18022;45.492;11.548;2024-03-29T11:29:21;15.80;99.90
31391;DHT22;18022;45.492;11.548;2024-03-29T11:31:47;16.20;99.90
31391;DHT22;18022;45.492;11.548;2024-03-29T11:34:18;16.10;99.90
31391;DHT22;18022;45.492;11.548;2024-03-29T11:36:45;15.80;99.90
31391;DHT22;18022;45.492;11.548;2024-03-29T11:39:22;16.20;99.90
31391;DHT22;18022;45.492;11.548;2024-03-29T11:41:49;16.30;99.90
31391;DHT22;18022;45.492;11.548;2024-03-29T11:44:15;16.10;99.90
31391;DHT22;18022;45.492;11.548;2024-03-29T11:46:42;15.90;99.90
31391;DHT22;18022;45.492;11.548;2024-03-29T11:49:09;16.10;99.90
31391;DHT22;18022;45.492;11.548;2024-03-29T11:51:34;16.30;99.90
31391;DHT22;18022;45.492;11.548;2024-03-29T11:54:01;16.40;99.90
31391;DHT22;18022;45.492;11.548;2024-03-29T11:56:28;16.30;99.90
31391;DHT22;18022;45.492;11.548;2024-03-29T11:58:54;16.30;99.90
31391;DHT22;18022;45.492;11.548;2024-03-29T12:01:28;16.20;99.90
31391;DHT22;18022;45.492;11.548;2024-03-29T12:03:55;16.30;99.90
31391;DHT22;18022;45.492;11.548;2024-03-29T12:06:21;16.30;99.90
31391;DHT22;18022;45.492;11.548;2024-03-29T12:08:47;16.30;99.90
31391;DHT22;18022;45.492;11.548;2024-03-29T12:11:14;16.40;99.90
31391;DHT22;18022;45.492;11.548;2024-03-29T12:13:40;16.50;99.90
31391;DHT22;18022;45.492;11.548;2024-03-29T12:16:06;16.60;99.90
31391;DHT22;18022;45.492;11.548;2024-03-29T12:18:33;16.80;99.90
31391;DHT22;18022;45.492;11.548;2024-03-29T12:21:00;16.90;99.90
31391;DHT22;18022;45.492;11.548;2024-03-29T12:23:26;17.30;99.90
31391;DHT22;18022;45.492;11.548;2024-03-29T12:25:54;17.00;99.90
31391;DHT22;18022;45.492;11.548;2024-03-29T12:28:24;16.80;99.90
31391;DHT22;18022;45.492;11.548;2024-03-29T12:30:50;16.60;99.90
31391;DHT22;18022;45.492;11.548;2024-03-29T12:33:19;17.00;99.90
31391;DHT22;18022;45.492;11.548;2024-03-29T12:35:50;16.90;99.90
31391;DHT22;18022;45.492;11.548;2024-03-29T12:38:19;17.10;99.90
31391;DHT22;18022;45.492;11.548;2024-03-29T12:40:46;17.00;99.90
31391;DHT22;18022;45.492;11.548;2024-03-29T12:43:20;17.30;99.90
31391;DHT22;18022;45.492;11.548;2024-03-29T12:45:46;17.30;99.90
31391;DHT22;18022;45.492;11.548;2024-03-29T12:48:17;17.10;99.90
31391;DHT22;18022;45.492;11.548;2024-03-29T12:50:44;17.10;99.90
31391;DHT22;18022;45.492;11.548;2024-03-29T12:53:11;17.10;99.90
31391;DHT22;18022;45.492;11.548;2024-03-29T12:55:41;17.10;99.90
31391;DHT22;18022;45.492;11.548;2024-03-29T12:58:15;16.90;99.90
31391;DHT22;18022;45.492;11.548;2024-03-29T13:00:41;17.20;99.90
31391;DHT22;18022;45.492;11.548;2024-03-29T13:03:08;17.40;99.90
31391;DHT22;18022;45.492;11.548;2024-03-29T13:05:38;17.50;99.90
31391;DHT22;18022;45.492;11.548;2024-03-29T13:08:08;17.40;99.90
31391;DHT22;18022;45.492;11.548;2024-03-29T13:10:40;17.30;99.90
31391;DHT22;18022;45.492;11.548;2024-03-29T13:13:06;17.20;99.90
31391;DHT22;18022;45.492;11.548;2024-03-29T13:15:37;17.30;99.90
31391;DHT22;18022;45.492;11.548;2024-03-29T13:18:03;17.10;99.90
31391;DHT22;18022;45.492;11.548;2024-03-29T13:20:30;17.00;99.90
31391;DHT22;18022;45.492;11.548;2024-03-29T13:22:58;17.20;99.90
31391;DHT22;18022;45.492;11.548;2024-03-29T13:25:23;17.40;99.90
31391;DHT22;18022;45.492;11.548;2024-03-29T13:27:51;17.50;99.90
31391;DHT22;18022;45.492;11.548;2024-03-29T13:30:23;17.40;99.90
31391;DHT22;18022;45.492;11.548;2024-03-29T13:32:49;17.30;99.90
31391;DHT22;18022;45.492;11.548;2024-03-29T13:35:15;17.30;99.90
31391;DHT22;18022;45.492;11.548;2024-03-29T13:37:43;17.50;99.90
31391;DHT22;18022;45.492;11.548;2024-03-29T13:40:09;17.50;99.90
31391;DHT22;18022;45.492;11.548;2024-03-29T13:42:38;17.50;99.90
31391;DHT22;18022;45.492;11.548;2024-03-29T13:45:06;17.50;99.90
31391;DHT22;18022;45.492;11.548;2024-03-29T13:47:33;17.40;99.90
31391;DHT22;18022;45.492;11.548;2024-03-29T13:50:00;17.40;99.90
31391;DHT22;18022;45.492;11.548;2024-03-29T13:52:26;17.30;99.90
31391;DHT22;18022;45.492;11.548;2024-03-29T13:54:55;17.30;99.90
31391;DHT22;18022;45.492;11.548;2024-03-29T13:57:21;17.30;99.90
31391;DHT22;18022;45.492;11.548;2024-03-29T13:59:47;17.30;99.90
31391;DHT22;18022;45.492;11.548;2024-03-29T14:02:17;17.20;99.90
31391;DHT22;18022;45.492;11.548;2024-03-29T14:04:44;17.20;99.90
31391;DHT22;18022;45.492;11.548;2024-03-29T14:07:12;17.30;99.90
31391;DHT22;18022;45.492;11.548;2024-03-29T14:09:42;17.20;99.90
31391;DHT22;18022;45.492;11.548;2024-03-29T14:12:27;17.00;99.90
31391;DHT22;18022;45.492;11.548;2024-03-29T14:14:53;17.10;99.90
31391;DHT22;18022;45.492;11.548;2024-03-29T14:17:19;17.10;99.90
31391;DHT22;18022;45.492;11.548;2024-03-29T14:19:45;16.90;99.90
31391;DHT22;18022;45.492;11.548;2024-03-29T14:22:11;16.90;99.90
31391;DHT22;18022;45.492;11.548;2024-03-29T14:24:42;16.90;99.90
31391;DHT22;18022;45.492;11.548;2024-03-29T14:27:08;16.90;99.90
31391;DHT22;18022;45.492;11.548;2024-03-29T14:29:34;16.90;99.90
31391;DHT22;18022;45.492;11.548;2024-03-29T14:32:00;16.90;99.90
31391;DHT22;18022;45.492;11.548;2024-03-29T14:34:27;16.90;99.90
31391;DHT22;18022;45.492;11.548;2024-03-29T14:36:52;16.90;99.90
31391;DHT22;18022;45.492;11.548;2024-03-29T14:39:18;16.90;99.90
31391;DHT22;18022;45.492;11.548;2024-03-29T14:41:46;16.90;99.90
31391;DHT22;18022;45.492;11.548;2024-03-29T14:44:12;16.90;99.90
31391;DHT22;18022;45.492;11.548;2024-03-29T14:46:38;16.90;99.90
31391;DHT22;18022;45.492;11.548;2024-03-29T14:49:05;16.80;99.90
31391;DHT22;18022;45.492;11.548;2024-03-29T14:51:35;16.70;99.90
31391;DHT22;18022;45.492;11.548;2024-03-29T14:54:02;16.70;99.90
31391;DHT22;18022;45.492;11.548;2024-03-29T14:56:29;16.80;99.90
31391;DHT22;18022;45.492;11.548;2024-03-29T14:58:58;16.80;99.90
31391;DHT22;18022;45.492;11.548;2024-03-29T15:01:24;16.80;99.90
31391;DHT22;18022;45.492;11.548;2024-03-29T15:03:51;16.90;99.90
31391;DHT22;18022;45.492;11.548;2024-03-29T15:06:18;16.90;99.90
31391;DHT22;18022;45.492;11.548;2024-03-29T15:08:44;16.90;99.90
31391;DHT22;18022;45.492;11.548;2024-03-29T15:11:09;16.90;99.90
31391;DHT22;18022;45.492;11.548;2024-03-29T15:13:35;16.80;99.90
31391;DHT22;18022;45.492;11.548;2024-03-29T15:16:01;16.70;99.90
31391;DHT22;18022;45.492;11.548;2024-03-29T15:18:28;16.60;99.90
31391;DHT22;18022;45.492;11.548;2024-03-29T15:20:55;16.70;99.90